createdAt,value
2023-10-28T00:00:09.871Z,8.69
2023-10-28T00:02:57.989Z,8.70
2023-10-28T00:05:26.417Z,8.70
2023-10-28T00:07:54.625Z,8.70
2023-10-28T00:10:22.893Z,8.72
2023-10-28T00:12:51.654Z,8.72
2023-10-28T00:15:20.123Z,8.72
2023-10-28T00:17:48.962Z,8.73
2023-10-28T00:20:20.674Z,8.73
2023-10-28T00:22:50.758Z,8.74
2023-10-28T00:25:18.856Z,8.74
2023-10-28T00:27:46.922Z,8.74
2023-10-28T00:30:15.818Z,8.74
2023-10-28T00:32:43.912Z,8.74
2023-10-28T00:35:15.071Z,8.76
2023-10-28T00:37:43.813Z,8.76
2023-10-28T00:40:12.604Z,8.76
2023-10-28T00:42:43.025Z,8.76
2023-10-28T00:45:13.044Z,8.77
2023-10-28T00:47:45.851Z,8.78
2023-10-28T00:50:18.396Z,8.78
2023-10-28T00:52:48.919Z,8.78
2023-10-28T00:55:18.325Z,8.77
2023-10-28T00:57:47.217Z,8.78
2023-10-28T01:00:25.013Z,8.80
2023-10-28T01:02:53.934Z,8.82
2023-10-28T01:05:23.917Z,8.83
2023-10-28T01:07:52.116Z,8.83
2023-10-28T01:10:32.270Z,8.83
2023-10-28T01:13:01.336Z,8.84
2023-10-28T01:15:29.506Z,8.84
2023-10-28T01:18:00.695Z,8.85
2023-10-28T01:20:29.030Z,8.85
2023-10-28T01:22:57.225Z,8.84
2023-10-28T01:25:26.709Z,8.85
2023-10-28T01:27:54.877Z,8.85
2023-10-28T01:30:23.355Z,8.84
2023-10-28T01:32:51.589Z,8.83
2023-10-28T01:35:19.805Z,8.83
2023-10-28T01:37:49.346Z,8.82
2023-10-28T01:40:18.896Z,8.82
2023-10-28T01:42:47.505Z,8.85
2023-10-28T01:45:19.541Z,8.86
2023-10-28T01:47:47.882Z,8.86
2023-10-28T01:50:18.212Z,8.87
2023-10-28T01:52:46.501Z,8.87
2023-10-28T01:55:16.164Z,8.85
2023-10-28T01:57:44.727Z,8.85
2023-10-28T02:00:18.166Z,8.85
2023-10-28T02:02:47.014Z,8.85
2023-10-28T02:05:16.950Z,8.85
2023-10-28T02:07:45.629Z,8.85
2023-10-28T02:10:13.985Z,8.84
2023-10-28T02:12:43.081Z,8.83
2023-10-28T02:15:11.250Z,8.84
2023-10-28T02:17:40.217Z,8.84
2023-10-28T02:20:11.586Z,8.82
2023-10-28T02:22:39.878Z,8.81
2023-10-28T02:25:10.213Z,8.82
2023-10-28T02:27:38.664Z,8.83
2023-10-28T02:30:08.805Z,8.83
2023-10-28T02:32:37.698Z,8.83
2023-10-28T02:35:06.700Z,8.84
2023-10-28T02:37:34.837Z,8.85
2023-10-28T02:40:05.261Z,8.86
2023-10-28T02:42:33.431Z,8.86
2023-10-28T02:45:01.703Z,8.88
2023-10-28T02:47:32.903Z,8.87
2023-10-28T02:50:01.581Z,8.88
2023-10-28T02:52:30.014Z,8.88
2023-10-28T02:54:58.187Z,8.87
2023-10-28T02:57:26.263Z,8.86
2023-10-28T02:59:54.530Z,8.84
2023-10-28T03:02:22.914Z,8.84
2023-10-28T03:04:51.221Z,8.83
2023-10-28T03:07:20.689Z,8.84
2023-10-28T03:09:48.761Z,8.85
2023-10-28T03:12:17.135Z,8.86
2023-10-28T03:14:45.307Z,8.87
2023-10-28T03:17:13.538Z,8.89
2023-10-28T03:19:41.968Z,8.89
2023-10-28T03:22:10.745Z,8.90
2023-10-28T03:24:38.917Z,8.92
2023-10-28T03:27:07.090Z,8.92
2023-10-28T03:29:35.573Z,8.92
2023-10-28T03:32:03.912Z,8.93
2023-10-28T03:34:32.224Z,8.93
2023-10-28T03:37:00.506Z,8.96
2023-10-28T03:39:30.727Z,8.97
2023-10-28T03:41:58.993Z,8.98
2023-10-28T03:44:27.680Z,8.98
2023-10-28T03:46:55.962Z,8.99
2023-10-28T03:49:24.019Z,8.99
2023-10-28T03:51:52.101Z,8.99
2023-10-28T03:54:20.266Z,9.01
2023-10-28T03:56:49.053Z,9.02
2023-10-28T03:59:17.475Z,9.01
2023-10-28T04:01:45.752Z,8.99
2023-10-28T04:04:13.976Z,9.00
2023-10-28T04:06:42.048Z,8.99
2023-10-28T04:09:10.219Z,8.99
2023-10-28T04:11:38.698Z,8.99
2023-10-28T04:14:06.904Z,9.00
2023-10-28T04:16:35.162Z,9.01
2023-10-28T04:19:03.648Z,9.01
2023-10-28T04:21:32.268Z,9.02
2023-10-28T04:24:00.482Z,9.04
2023-10-28T04:26:29.069Z,9.04
2023-10-28T04:29:01.525Z,9.04
2023-10-28T04:31:30.059Z,9.05
2023-10-28T04:33:58.191Z,9.06
2023-10-28T04:36:26.569Z,9.08
2023-10-28T04:38:54.639Z,9.10
2023-10-28T04:41:23.015Z,9.14
2023-10-28T04:43:51.113Z,9.17
2023-10-28T04:46:19.308Z,9.20
2023-10-28T04:48:48.150Z,9.22
2023-10-28T04:51:16.629Z,9.24
2023-10-28T04:53:46.454Z,9.25
2023-10-28T04:56:14.757Z,9.26
2023-10-28T04:58:43.042Z,9.27
2023-10-28T05:01:11.279Z,9.28
2023-10-28T05:03:39.463Z,9.29
2023-10-28T05:06:11.384Z,9.29
2023-10-28T05:08:39.778Z,9.29
2023-10-28T05:11:10.050Z,9.29
2023-10-28T05:13:38.276Z,9.29
2023-10-28T05:16:06.779Z,9.30
2023-10-28T05:18:34.820Z,9.30
2023-10-28T05:21:03.150Z,9.29
2023-10-28T05:23:31.366Z,9.29
2023-10-28T05:25:59.684Z,9.29
2023-10-28T05:28:27.812Z,9.28
2023-10-28T05:30:56.095Z,9.28
2023-10-28T05:33:24.159Z,9.29
2023-10-28T05:35:52.855Z,9.29
2023-10-28T05:38:21.751Z,9.28
2023-10-28T05:40:50.964Z,9.29
2023-10-28T05:43:19.818Z,9.29
2023-10-28T05:45:49.760Z,9.28
2023-10-28T05:48:19.354Z,9.27
2023-10-28T05:50:49.151Z,9.26
2023-10-28T05:53:17.981Z,9.25
2023-10-28T05:55:46.218Z,9.25
2023-10-28T05:58:14.492Z,9.24
2023-10-28T06:00:45.733Z,9.25
2023-10-28T06:03:14.008Z,9.25
2023-10-28T06:05:43.003Z,9.25
2023-10-28T06:08:12.925Z,9.25
2023-10-28T06:10:41.274Z,9.25
2023-10-28T06:13:10.235Z,9.26
2023-10-28T06:15:38.871Z,9.28
2023-10-28T06:18:07.176Z,9.30
2023-10-28T06:20:35.750Z,9.31
2023-10-28T06:23:07.546Z,9.31
2023-10-28T06:25:38.837Z,9.32
2023-10-28T06:28:07.265Z,9.34
2023-10-28T06:30:35.913Z,9.36
2023-10-28T06:33:04.183Z,9.37
2023-10-28T06:35:32.535Z,9.38
2023-10-28T06:38:01.114Z,9.40
2023-10-28T06:40:30.316Z,9.42
2023-10-28T06:42:58.399Z,9.46
2023-10-28T06:45:26.570Z,9.48
2023-10-28T06:47:54.897Z,9.50
2023-10-28T06:50:23.199Z,9.51
2023-10-28T06:52:51.500Z,9.52
2023-10-28T06:55:20.277Z,9.50
2023-10-28T06:57:48.443Z,9.47
2023-10-28T07:00:17.994Z,9.45
2023-10-28T07:02:46.329Z,9.42
2023-10-28T07:05:15.847Z,9.40
2023-10-28T07:07:45.124Z,9.40
2023-10-28T07:10:16.472Z,9.42
2023-10-28T07:12:45.368Z,9.43
2023-10-28T07:15:13.545Z,9.45
2023-10-28T07:17:41.798Z,9.48
2023-10-28T07:20:10.332Z,9.49
2023-10-28T07:22:38.462Z,9.51
2023-10-28T07:25:07.858Z,9.52
2023-10-28T07:27:36.189Z,9.54
2023-10-28T07:30:05.028Z,9.55
2023-10-28T07:32:33.238Z,9.56
2023-10-28T07:35:01.357Z,9.59
2023-10-28T07:37:30.748Z,9.62
2023-10-28T07:40:00.588Z,9.65
2023-10-28T07:42:28.863Z,9.71
2023-10-28T07:44:58.316Z,9.76
2023-10-28T07:47:27.047Z,9.84
2023-10-28T07:49:55.250Z,9.90
2023-10-28T07:52:23.494Z,9.96
2023-10-28T07:54:51.670Z,10.04
2023-10-28T07:57:19.738Z,10.13
2023-10-28T07:59:48.272Z,10.21
2023-10-28T08:02:17.436Z,10.28
2023-10-28T08:04:45.686Z,10.36
2023-10-28T08:07:16.223Z,10.43
2023-10-28T08:09:46.595Z,10.50
2023-10-28T08:12:16.134Z,10.56
2023-10-28T08:14:48.467Z,10.61
2023-10-28T08:17:17.596Z,10.69
2023-10-28T08:19:46.060Z,10.78
2023-10-28T08:22:15.398Z,10.86
2023-10-28T08:24:43.662Z,10.93
2023-10-28T08:27:11.842Z,11.01
2023-10-28T08:29:40.523Z,11.14
2023-10-28T08:32:08.611Z,11.26
2023-10-28T08:34:37.068Z,11.38
2023-10-28T08:37:05.073Z,11.51
2023-10-28T08:39:33.532Z,11.64
2023-10-28T08:42:08.872Z,11.78
2023-10-28T08:44:38.930Z,11.96
2023-10-28T08:47:10.632Z,12.09
2023-10-28T08:49:41.447Z,12.19
2023-10-28T08:52:11.286Z,12.28
2023-10-28T08:54:40.267Z,12.36
2023-10-28T08:57:08.855Z,12.43
2023-10-28T08:59:38.362Z,12.52
2023-10-28T09:02:11.276Z,12.65
2023-10-28T09:04:39.507Z,12.80
2023-10-28T09:07:08.502Z,12.89
2023-10-28T09:09:39.201Z,12.99
2023-10-28T09:12:10.680Z,13.08
2023-10-28T09:14:40.296Z,13.19
2023-10-28T09:17:08.570Z,13.22
2023-10-28T09:19:36.636Z,13.28
2023-10-28T09:22:04.808Z,13.34
2023-10-28T09:24:33.597Z,13.47
2023-10-28T09:27:02.280Z,13.61
2023-10-28T09:29:32.070Z,13.72
2023-10-28T09:32:07.276Z,13.84
2023-10-28T09:34:40.039Z,13.80
2023-10-28T09:37:08.902Z,13.70
2023-10-28T09:39:38.055Z,13.68
2023-10-28T09:42:06.877Z,13.67
2023-10-28T09:44:35.787Z,13.66
2023-10-28T09:47:06.371Z,13.62
2023-10-28T09:49:36.341Z,13.68
2023-10-28T09:52:08.213Z,13.71
2023-10-28T09:54:38.315Z,13.75
2023-10-28T09:57:09.428Z,13.86
2023-10-28T09:59:40.574Z,13.98
2023-10-28T10:02:17.878Z,14.14
2023-10-28T10:04:50.456Z,14.30
2023-10-28T10:07:18.705Z,14.44
2023-10-28T10:09:50.361Z,14.74
2023-10-28T10:12:18.531Z,15.09
2023-10-28T10:14:48.736Z,15.39
2023-10-28T10:17:46.083Z,15.61
2023-10-28T10:20:14.418Z,15.45
2023-10-28T10:22:42.966Z,15.21
2023-10-28T10:25:11.446Z,15.07
2023-10-28T10:27:45.939Z,14.97
2023-10-28T10:30:14.709Z,14.85
2023-10-28T10:32:50.703Z,14.71
2023-10-28T10:35:31.560Z,14.52
2023-10-28T10:38:10.896Z,14.33
2023-10-28T10:40:51.727Z,14.10
2023-10-28T10:43:21.471Z,13.87
2023-10-28T10:45:50.379Z,13.75
2023-10-28T10:48:18.861Z,13.58
2023-10-28T10:50:47.853Z,13.40
2023-10-28T10:53:16.169Z,13.33
2023-10-28T10:55:44.301Z,13.31
2023-10-28T10:58:12.880Z,13.34
2023-10-28T11:00:41.069Z,13.45
2023-10-28T11:03:12.169Z,13.57
2023-10-28T11:05:45.118Z,13.70
2023-10-28T11:08:16.167Z,13.80
2023-10-28T11:10:46.747Z,13.87
2023-10-28T11:13:14.817Z,13.91
2023-10-28T11:15:43.130Z,13.89
2023-10-28T11:18:11.408Z,13.90
2023-10-28T11:20:40.461Z,13.93
2023-10-28T11:23:08.681Z,13.96
2023-10-28T11:25:38.141Z,14.00
2023-10-28T11:28:10.731Z,14.07
2023-10-28T11:30:39.433Z,14.16
2023-10-28T11:33:09.929Z,14.19
2023-10-28T11:35:38.400Z,14.16
2023-10-28T11:38:07.510Z,14.13
2023-10-28T11:40:35.669Z,14.05
2023-10-28T11:43:06.732Z,13.95
2023-10-28T11:45:35.954Z,13.85
2023-10-28T11:48:04.648Z,13.74
2023-10-28T11:50:33.017Z,13.67
2023-10-28T11:53:01.294Z,13.57
2023-10-28T11:55:29.618Z,13.55
2023-10-28T11:57:57.894Z,13.55
2023-10-28T12:00:27.707Z,13.49
2023-10-28T12:02:55.984Z,13.43
2023-10-28T12:05:24.505Z,13.42
2023-10-28T12:07:52.733Z,13.41
2023-10-28T12:10:21.315Z,13.35
2023-10-28T12:12:49.496Z,13.28
2023-10-28T12:15:17.558Z,13.19
2023-10-28T12:17:49.082Z,13.13
2023-10-28T12:20:17.304Z,13.08
2023-10-28T12:22:45.455Z,13.03
2023-10-28T12:25:15.483Z,13.00
2023-10-28T12:27:45.498Z,12.95
2023-10-28T12:30:13.870Z,12.87
2023-10-28T12:32:42.215Z,12.77
2023-10-28T12:35:11.051Z,12.68
2023-10-28T12:37:39.201Z,12.63
2023-10-28T12:40:08.336Z,12.61
2023-10-28T12:42:37.289Z,12.58
2023-10-28T12:45:07.408Z,12.52
2023-10-28T12:47:35.877Z,12.44
2023-10-28T12:50:04.927Z,12.31
2023-10-28T12:52:33.570Z,12.21
2023-10-28T12:55:04.707Z,12.12
2023-10-28T12:57:32.983Z,12.02
2023-10-28T13:00:01.147Z,11.98
2023-10-28T13:02:32.569Z,11.96
2023-10-28T13:05:01.117Z,11.95
2023-10-28T13:07:30.893Z,11.93
2023-10-28T13:09:59.164Z,11.91
2023-10-28T13:12:27.439Z,11.84
2023-10-28T13:14:56.433Z,11.70
2023-10-28T13:17:24.658Z,11.63
2023-10-28T13:19:52.879Z,11.60
2023-10-28T13:22:22.696Z,11.67
2023-10-28T13:24:50.966Z,11.79
2023-10-28T13:27:19.136Z,11.93
2023-10-28T13:29:47.628Z,12.03
2023-10-28T13:32:16.000Z,12.14
2023-10-28T13:34:44.065Z,12.22
2023-10-28T13:37:13.290Z,12.36
2023-10-28T13:39:41.664Z,12.37
2023-10-28T13:42:09.807Z,12.37
2023-10-28T13:44:37.896Z,12.38
2023-10-28T13:47:06.156Z,12.38
2023-10-28T13:49:34.844Z,12.39
2023-10-28T13:52:04.550Z,12.36
2023-10-28T13:54:33.026Z,12.35
2023-10-28T13:57:01.609Z,12.38
2023-10-28T13:59:30.008Z,12.39
2023-10-28T14:01:58.261Z,12.39
2023-10-28T14:04:26.330Z,12.43
2023-10-28T14:06:57.280Z,12.43
2023-10-28T14:09:25.391Z,12.44
2023-10-28T14:11:53.511Z,12.46
2023-10-28T14:14:21.619Z,12.46
2023-10-28T14:16:49.959Z,12.49
2023-10-28T14:19:19.053Z,12.47
2023-10-28T14:21:47.228Z,12.45
2023-10-28T14:24:20.911Z,12.41
2023-10-28T14:26:50.945Z,12.40
2023-10-28T14:29:19.136Z,12.40
2023-10-28T14:31:47.502Z,12.38
2023-10-28T14:34:16.622Z,12.36
2023-10-28T14:36:44.870Z,12.33
2023-10-28T14:39:13.036Z,12.32
2023-10-28T14:41:41.400Z,12.31
2023-10-28T14:44:10.366Z,12.28
2023-10-28T14:46:38.876Z,12.25
2023-10-28T14:49:07.494Z,12.19
2023-10-28T14:51:35.639Z,12.12
2023-10-28T14:54:04.110Z,12.06
2023-10-28T14:56:32.840Z,12.01
2023-10-28T14:59:01.625Z,11.95
2023-10-28T15:01:30.786Z,11.90
2023-10-28T15:03:59.103Z,11.84
2023-10-28T15:06:27.540Z,11.78
2023-10-28T15:08:55.817Z,11.73
2023-10-28T15:11:24.222Z,11.70
2023-10-28T15:13:52.468Z,11.66
2023-10-28T15:16:20.687Z,11.60
2023-10-28T15:18:49.425Z,11.56
2023-10-28T15:21:17.725Z,11.51
2023-10-28T15:23:46.093Z,11.47
2023-10-28T15:26:15.814Z,11.42
2023-10-28T15:28:45.391Z,11.36
2023-10-28T15:31:15.219Z,11.33
2023-10-28T15:33:45.539Z,11.30
2023-10-28T15:36:14.014Z,11.28
2023-10-28T15:38:42.749Z,11.25
2023-10-28T15:41:11.328Z,11.21
2023-10-28T15:43:43.231Z,11.19
2023-10-28T15:46:13.906Z,11.17
2023-10-28T15:48:43.979Z,11.15
2023-10-28T15:51:13.797Z,11.13
2023-10-28T15:53:42.374Z,11.09
2023-10-28T15:56:14.143Z,11.04
2023-10-28T15:58:43.258Z,11.00
2023-10-28T16:01:11.490Z,10.96
2023-10-28T16:03:39.902Z,10.92
2023-10-28T16:06:12.559Z,10.88
2023-10-28T16:08:42.579Z,10.85
2023-10-28T16:11:12.521Z,10.82
2023-10-28T16:13:42.757Z,10.79
2023-10-28T16:16:13.353Z,10.78
2023-10-28T16:18:43.097Z,10.77
2023-10-28T16:21:11.340Z,10.75
2023-10-28T16:23:40.861Z,10.74
2023-10-28T16:26:09.564Z,10.73
2023-10-28T16:28:38.084Z,10.73
2023-10-28T16:31:08.638Z,10.72
2023-10-28T16:33:37.781Z,10.71
2023-10-28T16:36:07.611Z,10.69
2023-10-28T16:38:37.023Z,10.68
2023-10-28T16:41:05.631Z,10.69
2023-10-28T16:43:34.284Z,10.68
2023-10-28T16:46:04.578Z,10.68
2023-10-28T16:48:33.610Z,10.68
2023-10-28T16:51:02.198Z,10.67
2023-10-28T16:53:32.419Z,10.67
2023-10-28T16:56:01.504Z,10.67
2023-10-28T16:58:29.576Z,10.68
2023-10-28T17:00:57.742Z,10.67
2023-10-28T17:03:25.902Z,10.64
2023-10-28T17:05:54.802Z,10.62
2023-10-28T17:08:22.906Z,10.62
2023-10-28T17:10:51.163Z,10.62
2023-10-28T17:13:19.734Z,10.61
2023-10-28T17:15:48.760Z,10.61
2023-10-28T17:18:17.091Z,10.60
2023-10-28T17:20:45.519Z,10.59
2023-10-28T17:23:15.326Z,10.58
2023-10-28T17:25:43.459Z,10.56
2023-10-28T17:28:11.532Z,10.55
2023-10-28T17:30:42.774Z,10.55
2023-10-28T17:33:13.016Z,10.54
2023-10-28T17:35:44.477Z,10.51
2023-10-28T17:38:12.965Z,10.49
2023-10-28T17:40:41.409Z,10.48
2023-10-28T17:43:09.607Z,10.49
2023-10-28T17:45:41.047Z,10.48
2023-10-28T17:48:09.236Z,10.48
2023-10-28T17:50:37.732Z,10.48
2023-10-28T17:53:05.958Z,10.48
2023-10-28T17:55:34.228Z,10.47
2023-10-28T17:58:02.402Z,10.47
2023-10-28T18:00:30.795Z,10.46
2023-10-28T18:02:59.937Z,10.44
2023-10-28T18:05:28.722Z,10.43
2023-10-28T18:07:57.034Z,10.42
2023-10-28T18:10:25.308Z,10.41
2023-10-28T18:12:55.535Z,10.40
2023-10-28T18:15:24.130Z,10.38
2023-10-28T18:17:52.351Z,10.38
2023-10-28T18:20:21.612Z,10.38
2023-10-28T18:22:49.857Z,10.38
2023-10-28T18:25:18.029Z,10.38
2023-10-28T18:27:47.124Z,10.38
2023-10-28T18:30:17.057Z,10.38
2023-10-28T18:32:45.258Z,10.39
2023-10-28T18:35:13.536Z,10.39
2023-10-28T18:37:41.964Z,10.40
2023-10-28T18:40:10.859Z,10.40
2023-10-28T18:42:39.645Z,10.41
2023-10-28T18:45:08.530Z,10.41
2023-10-28T18:47:38.672Z,10.42
2023-10-28T18:50:08.935Z,10.43
2023-10-28T18:52:37.246Z,10.42
2023-10-28T18:55:06.185Z,10.42
2023-10-28T18:57:34.517Z,10.43
2023-10-28T19:00:04.885Z,10.44
2023-10-28T19:02:33.282Z,10.45
2023-10-28T19:05:01.591Z,10.44
2023-10-28T19:07:29.762Z,10.44
2023-10-28T19:09:59.375Z,10.44
2023-10-28T19:12:27.951Z,10.42
2023-10-28T19:14:56.125Z,10.39
2023-10-28T19:17:24.341Z,10.35
2023-10-28T19:19:53.499Z,10.31
2023-10-28T19:22:21.874Z,10.28
2023-10-28T19:24:50.865Z,10.23
2023-10-28T19:27:19.039Z,10.18
2023-10-28T19:29:48.413Z,10.14
2023-10-28T19:32:16.860Z,10.12
2023-10-28T19:34:45.089Z,10.08
2023-10-28T19:37:15.410Z,10.02
2023-10-28T19:39:43.478Z,9.97
2023-10-28T19:42:11.861Z,9.92
2023-10-28T19:44:40.064Z,9.91
2023-10-28T19:47:08.921Z,9.88
2023-10-28T19:49:37.026Z,9.88
2023-10-28T19:52:06.785Z,9.87
2023-10-28T19:54:34.988Z,9.86
2023-10-28T19:57:03.141Z,9.85
2023-10-28T19:59:31.343Z,9.81
2023-10-28T20:01:59.591Z,9.80
2023-10-28T20:04:27.659Z,9.77
2023-10-28T20:06:55.936Z,9.72
2023-10-28T20:09:24.825Z,9.68
2023-10-28T20:11:55.967Z,9.65
2023-10-28T20:14:24.265Z,9.66
2023-10-28T20:16:52.413Z,9.65
2023-10-28T20:19:21.000Z,9.66
2023-10-28T20:21:49.784Z,9.68
2023-10-28T20:24:18.159Z,9.69
2023-10-28T20:26:46.586Z,9.70
2023-10-28T20:29:15.593Z,9.73
2023-10-28T20:31:43.807Z,9.74
2023-10-28T20:34:13.622Z,9.77
2023-10-28T20:36:41.684Z,9.79
2023-10-28T20:39:10.610Z,9.81
2023-10-28T20:41:38.721Z,9.84
2023-10-28T20:44:06.918Z,9.86
2023-10-28T20:46:35.089Z,9.87
2023-10-28T20:49:07.201Z,9.89
2023-10-28T20:51:35.443Z,9.91
2023-10-28T20:54:03.909Z,9.93
2023-10-28T20:56:32.087Z,9.94
2023-10-28T20:59:00.257Z,9.96
2023-10-28T21:01:28.414Z,9.97
2023-10-28T21:03:56.808Z,9.96
2023-10-28T21:06:25.094Z,9.96
2023-10-28T21:08:53.688Z,9.95
2023-10-28T21:11:22.915Z,9.95
2023-10-28T21:13:51.235Z,9.95
2023-10-28T21:16:19.425Z,9.93
2023-10-28T21:18:47.686Z,9.93
2023-10-28T21:21:15.964Z,9.93
2023-10-28T21:23:44.143Z,9.93
2023-10-28T21:26:13.671Z,9.93
2023-10-28T21:28:41.909Z,9.92
2023-10-28T21:31:12.818Z,9.91
2023-10-28T21:33:41.134Z,9.91
2023-10-28T21:36:09.500Z,9.91
2023-10-28T21:38:37.806Z,9.91
2023-10-28T21:41:09.708Z,9.90
2023-10-28T21:43:38.017Z,9.90
2023-10-28T21:46:09.699Z,9.91
2023-10-28T21:48:39.101Z,9.91
2023-10-28T21:51:08.917Z,9.91
2023-10-28T21:53:37.278Z,9.90
2023-10-28T21:56:06.355Z,9.89
2023-10-28T21:58:35.337Z,9.90
2023-10-28T22:01:04.646Z,9.90
2023-10-28T22:03:33.201Z,9.89
2023-10-28T22:06:02.017Z,9.89
2023-10-28T22:08:30.907Z,9.89
2023-10-28T22:11:00.203Z,9.90
2023-10-28T22:13:28.789Z,9.89
2023-10-28T22:15:57.489Z,9.89
2023-10-28T22:18:25.798Z,9.89
2023-10-28T22:20:54.243Z,9.89
2023-10-28T22:23:25.616Z,9.89
2023-10-28T22:25:53.950Z,9.89
2023-10-28T22:28:22.113Z,9.90
2023-10-28T22:30:50.312Z,9.90
2023-10-28T22:33:19.041Z,9.90
2023-10-28T22:35:47.614Z,9.88
2023-10-28T22:38:15.939Z,9.84
2023-10-28T22:40:44.988Z,9.81
2023-10-28T22:43:13.400Z,9.77
2023-10-28T22:45:41.479Z,9.73
2023-10-28T22:48:10.208Z,9.71
2023-10-28T22:50:38.898Z,9.67
2023-10-28T22:53:10.194Z,9.64
2023-10-28T22:55:38.465Z,9.60
2023-10-28T22:58:08.524Z,9.58
2023-10-28T23:00:36.803Z,9.57
2023-10-28T23:03:09.014Z,9.56
2023-10-28T23:05:38.535Z,9.55
2023-10-28T23:08:07.322Z,9.55
2023-10-28T23:10:35.503Z,9.57
2023-10-28T23:13:03.757Z,9.58
2023-10-28T23:15:31.933Z,9.60
2023-10-28T23:18:00.299Z,9.60
2023-10-28T23:20:28.657Z,9.61
2023-10-28T23:22:57.059Z,9.61
2023-10-28T23:25:25.346Z,9.63
2023-10-28T23:27:54.219Z,9.61
2023-10-28T23:30:24.712Z,9.61
2023-10-28T23:32:53.443Z,9.59
2023-10-28T23:35:21.843Z,9.57
2023-10-28T23:37:49.987Z,9.53
2023-10-28T23:40:18.158Z,9.51
2023-10-28T23:42:47.054Z,9.48
2023-10-28T23:45:15.231Z,9.44
2023-10-28T23:47:44.626Z,9.41
2023-10-28T23:50:12.898Z,9.39
2023-10-28T23:52:41.276Z,9.34
2023-10-28T23:55:09.751Z,9.31
2023-10-28T23:57:38.437Z,9.26
